Time;durP1;ratioP1;P1;durP2;ratioP2;P2;SDS_P1;SDS_P2;PMS_P1;PMS_P2;Temp;Humidity;BMP_temperature;BMP_pressure;BME280_temperature;BME280_humidity;BME280_pressure;Samples;Min_cycle;Max_cycle;Signal;HPM_P1;HPM_P2
2024/03/04 00:01:28;;;;;;;;;37.50;29.50;;;;;;;;5090113;28;11458;-83
2024/03/04 00:03:55;;;;;;;;;32.25;29.50;;;;;;;;5089944;28;11540;-83
2024/03/04 00:06:22;;;;;;;;;17.50;17.50;;;;;;;;5090160;28;11510;-83
2024/03/04 00:08:53;;;;;;;;;18.25;15.50;;;;;;;;5090288;28;11554;-82
2024/03/04 00:11:20;;;;;;;;;18.00;15.75;;;;;;;;5088617;28;11514;-81
2024/03/04 00:13:48;;;;;;;;;17.25;13.25;;;;;;;;5090503;28;11519;-81
2024/03/04 00:16:15;;;;;;;;;15.25;13.25;;;;;;;;5101744;28;11521;-83
2024/03/04 00:18:42;;;;;;;;;20.00;17.50;;;;;;;;5100865;28;11617;-83
2024/03/04 00:21:10;;;;;;;;;12.75;12.75;;;;;;;;5090767;28;11479;-83
2024/03/04 00:23:37;;;;;;;;;10.25;10.25;;;;;;;;5090079;28;11526;-81
2024/03/04 00:26:09;;;;;;;;;8.00;8.00;;;;;;;;5089848;28;11599;-81
2024/03/04 00:28:39;;;;;;;;;15.00;13.00;;;;;;;;5089803;28;11465;-80
2024/03/04 00:31:10;;;;;;;;;10.50;10.50;;;;;;;;5088344;28;11534;-81
2024/03/04 00:33:37;;;;;;;;;12.25;12.25;;;;;;;;5089869;28;11522;-81
2024/03/04 00:36:06;;;;;;;;;12.25;12.25;;;;;;;;5090516;28;11454;-80
2024/03/04 00:38:35;;;;;;;;;13.00;13.00;;;;;;;;5091226;28;11544;-80
2024/03/04 00:41:02;;;;;;;;;9.00;9.00;;;;;;;;5092391;28;11531;-80
2024/03/04 00:43:37;;;;;;;;;15.25;15.25;;;;;;;;5092225;28;11488;-80
2024/03/04 00:46:05;;;;;;;;;19.75;17.50;;;;;;;;5090387;28;11513;-82
2024/03/04 00:48:35;;;;;;;;;19.50;15.25;;;;;;;;5091562;28;11539;-81
2024/03/04 00:51:04;;;;;;;;;16.00;16.00;;;;;;;;5093300;28;11528;-80
2024/03/04 00:53:32;;;;;;;;;17.25;17.25;;;;;;;;5094203;28;11464;-81
2024/03/04 00:55:59;;;;;;;;;17.00;16.50;;;;;;;;5093501;28;11512;-81
2024/03/04 00:58:31;;;;;;;;;13.75;11.25;;;;;;;;5092902;28;11644;-81
2024/03/04 01:01:01;;;;;;;;;22.25;21.00;;;;;;;;5094761;28;11445;-82
2024/03/04 01:03:28;;;;;;;;;10.50;10.50;;;;;;;;5093678;28;11619;-81
2024/03/04 01:05:58;;;;;;;;;21.75;19.75;;;;;;;;5089539;28;11897;-81
2024/03/04 01:08:25;;;;;;;;;16.75;16.75;;;;;;;;5089120;28;11639;-82
2024/03/04 01:10:54;;;;;;;;;17.00;17.00;;;;;;;;5089826;28;11523;-81
2024/03/04 01:13:23;;;;;;;;;19.25;19.00;;;;;;;;5089707;28;11508;-82
2024/03/04 01:15:52;;;;;;;;;17.00;15.50;;;;;;;;5089415;28;11568;-82
2024/03/04 01:18:20;;;;;;;;;30.75;22.75;;;;;;;;5089002;28;11575;-82
2024/03/04 01:20:47;;;;;;;;;21.50;19.75;;;;;;;;5088847;28;11526;-82
2024/03/04 01:23:15;;;;;;;;;26.75;22.00;;;;;;;;5089145;28;11534;-82
2024/03/04 01:25:42;;;;;;;;;24.00;23.25;;;;;;;;5088645;28;11532;-83
2024/03/04 01:28:09;;;;;;;;;24.25;23.00;;;;;;;;5088781;28;11519;-83
2024/03/04 01:30:39;;;;;;;;;24.25;22.00;;;;;;;;5087451;28;12319;-82
2024/03/04 01:33:07;;;;;;;;;29.25;20.25;;;;;;;;5090173;28;11661;-81
2024/03/04 01:35:44;;;;;;;;;28.50;23.00;;;;;;;;5091789;28;11541;-81
2024/03/04 01:38:11;;;;;;;;;27.25;24.00;;;;;;;;5091944;28;11622;-81
2024/03/04 01:40:38;;;;;;;;;17.50;15.00;;;;;;;;5089354;28;11512;-81
2024/03/04 01:43:06;;;;;;;;;23.00;23.00;;;;;;;;5088133;28;11523;-82
2024/03/04 01:45:33;;;;;;;;;31.75;24.50;;;;;;;;5088094;28;11543;-81
2024/03/04 01:48:03;;;;;;;;;28.50;27.25;;;;;;;;5088438;28;11666;-80
2024/03/04 01:50:36;;;;;;;;;22.50;22.50;;;;;;;;5093660;28;11510;-80
2024/03/04 01:53:05;;;;;;;;;30.75;30.75;;;;;;;;5093985;28;11666;-81
2024/03/04 01:55:38;;;;;;;;;38.25;35.50;;;;;;;;5088327;28;12276;-82
2024/03/04 01:58:08;;;;;;;;;35.00;31.75;;;;;;;;5088408;28;11561;-82
2024/03/04 02:00:41;;;;;;;;;33.00;28.75;;;;;;;;5087998;28;11442;-81
2024/03/04 02:03:12;;;;;;;;;43.25;39.25;;;;;;;;5069796;28;11537;-81
2024/03/04 02:05:42;;;;;;;;;44.50;38.00;;;;;;;;5087157;28;11516;-81
2024/03/04 02:08:09;;;;;;;;;40.25;37.50;;;;;;;;5087382;28;11555;-81
2024/03/04 02:10:37;;;;;;;;;40.00;37.25;;;;;;;;5087881;28;11570;-82
2024/03/04 02:13:04;;;;;;;;;48.25;41.50;;;;;;;;5087852;28;11707;-82
2024/03/04 02:15:34;;;;;;;;;49.75;44.75;;;;;;;;5087897;28;12403;-81
2024/03/04 02:18:01;;;;;;;;;57.33;46.00;;;;;;;;5088049;28;11532;-81
2024/03/04 02:20:29;;;;;;;;;51.00;45.75;;;;;;;;5079884;28;11520;-80
2024/03/04 02:22:58;;;;;;;;;59.67;51.67;;;;;;;;5087386;28;11553;-82
2024/03/04 02:25:25;;;;;;;;;49.75;44.00;;;;;;;;5087467;28;11679;-80
2024/03/04 02:27:52;;;;;;;;;52.50;41.75;;;;;;;;5087577;28;12351;-81
2024/03/04 02:30:19;;;;;;;;;51.25;44.00;;;;;;;;5087786;28;11669;-80
2024/03/04 02:32:56;;;;;;;;;54.33;46.00;;;;;;;;5087692;28;11529;-81
2024/03/04 02:35:23;;;;;;;;;48.33;39.33;;;;;;;;5088285;28;11532;-82
2024/03/04 02:37:50;;;;;;;;;58.33;47.33;;;;;;;;5088663;28;11561;-80
2024/03/04 02:40:19;;;;;;;;;50.25;43.00;;;;;;;;5090724;28;11530;-82
2024/03/04 02:42:46;;;;;;;;;60.67;48.67;;;;;;;;5091476;28;11675;-81
2024/03/04 02:45:13;;;;;;;;;59.33;48.00;;;;;;;;5091666;28;11612;-81
2024/03/04 02:47:41;;;;;;;;;65.00;51.00;;;;;;;;5091996;28;8862;-82
2024/03/04 02:50:09;;;;;;;;;73.33;59.33;;;;;;;;5091739;28;11657;-82
2024/03/04 02:52:39;;;;;;;;;70.33;57.33;;;;;;;;5091231;28;8833;-81
2024/03/04 02:55:07;;;;;;;;;81.67;66.00;;;;;;;;5089338;28;8892;-79
2024/03/04 02:57:39;;;;;;;;;76.67;60.67;;;;;;;;5088379;28;8996;-81
2024/03/04 03:00:08;;;;;;;;;78.33;60.33;;;;;;;;5086767;28;8854;-81
2024/03/04 03:02:38;;;;;;;;;82.00;65.67;;;;;;;;5087736;28;8878;-81
2024/03/04 03:05:06;;;;;;;;;88.00;67.00;;;;;;;;5091924;28;8859;-82
2024/03/04 03:07:34;;;;;;;;;90.33;76.33;;;;;;;;5096339;28;8991;-82
2024/03/04 03:10:02;;;;;;;;;90.00;71.00;;;;;;;;5087997;28;8939;-81
2024/03/04 03:12:30;;;;;;;;;82.67;65.67;;;;;;;;5087926;28;8972;-80
2024/03/04 03:15:02;;;;;;;;;82.33;67.67;;;;;;;;5087308;28;8858;-80
2024/03/04 03:17:29;;;;;;;;;86.33;69.00;;;;;;;;5087706;28;8843;-81
2024/03/04 03:19:56;;;;;;;;;93.67;73.67;;;;;;;;5090688;28;9403;-79
2024/03/04 03:22:23;;;;;;;;;92.33;74.00;;;;;;;;5092770;28;8838;-80
2024/03/04 03:24:50;;;;;;;;;93.33;71.00;;;;;;;;5095150;28;8953;-83
2024/03/04 03:27:18;;;;;;;;;92.00;70.67;;;;;;;;5099139;28;8866;-81
2024/03/04 03:29:45;;;;;;;;;96.00;78.67;;;;;;;;5097956;28;8890;-80
2024/03/04 03:32:14;;;;;;;;;88.67;68.00;;;;;;;;5093077;28;8806;-80
2024/03/04 03:34:41;;;;;;;;;87.00;70.67;;;;;;;;5078969;28;9774;-81
2024/03/04 03:37:08;;;;;;;;;91.33;77.00;;;;;;;;5090937;28;8992;-80
2024/03/04 03:39:35;;;;;;;;;76.00;62.33;;;;;;;;5091494;28;8874;-81
2024/03/04 03:42:07;;;;;;;;;65.00;51.67;;;;;;;;5091006;28;8898;-82
2024/03/04 03:44:35;;;;;;;;;79.00;62.33;;;;;;;;5079956;28;9012;-83
2024/03/04 03:47:02;;;;;;;;;81.67;64.00;;;;;;;;5091216;28;8846;-81
2024/03/04 03:49:30;;;;;;;;;81.00;63.00;;;;;;;;5091001;28;8830;-82
2024/03/04 03:52:00;;;;;;;;;84.33;66.00;;;;;;;;5089998;28;8830;-83
2024/03/04 03:54:27;;;;;;;;;77.33;59.67;;;;;;;;5090558;28;8976;-82
2024/03/04 03:56:54;;;;;;;;;70.00;57.00;;;;;;;;5088854;28;8850;-82
2024/03/04 03:59:21;;;;;;;;;70.00;56.00;;;;;;;;5090406;28;8864;-82
2024/03/04 04:01:49;;;;;;;;;65.33;54.00;;;;;;;;5088117;28;8785;-81
2024/03/04 04:04:17;;;;;;;;;68.00;55.33;;;;;;;;5091421;28;8889;-80
2024/03/04 04:06:46;;;;;;;;;70.00;56.33;;;;;;;;5090597;28;9598;-81
2024/03/04 04:09:13;;;;;;;;;64.00;53.33;;;;;;;;5090330;28;8854;-81
2024/03/04 04:11:44;;;;;;;;;67.33;54.67;;;;;;;;5089024;28;8866;-82
2024/03/04 04:14:11;;;;;;;;;65.67;52.67;;;;;;;;5089594;28;8861;-79
2024/03/04 04:16:38;;;;;;;;;72.33;59.67;;;;;;;;5089062;28;8846;-81
2024/03/04 04:19:06;;;;;;;;;73.00;59.00;;;;;;;;5090687;28;8913;-81
2024/03/04 04:21:34;;;;;;;;;71.00;57.67;;;;;;;;5090842;28;8838;-81
2024/03/04 04:24:03;;;;;;;;;73.00;58.00;;;;;;;;5089412;28;8834;-81
2024/03/04 04:26:31;;;;;;;;;76.00;59.00;;;;;;;;5090656;28;8854;-81
2024/03/04 04:28:58;;;;;;;;;81.33;65.67;;;;;;;;5091027;28;8842;-79
2024/03/04 04:31:28;;;;;;;;;74.67;58.67;;;;;;;;5092646;28;8815;-81
2024/03/04 04:33:55;;;;;;;;;76.67;60.00;;;;;;;;5094518;28;8880;-81
2024/03/04 04:36:23;;;;;;;;;72.67;57.33;;;;;;;;5106015;28;8965;-83
2024/03/04 04:38:50;;;;;;;;;66.00;54.67;;;;;;;;5093268;28;8862;-81
2024/03/04 04:41:18;;;;;;;;;69.67;52.67;;;;;;;;5094040;28;9038;-81
2024/03/04 04:43:46;;;;;;;;;55.33;46.00;;;;;;;;5091609;28;8854;-81
2024/03/04 04:46:13;;;;;;;;;61.00;49.00;;;;;;;;5089917;28;8947;-82
2024/03/04 04:48:41;;;;;;;;;46.33;38.67;;;;;;;;5089347;28;8923;-81
2024/03/04 04:51:10;;;;;;;;;48.67;40.00;;;;;;;;5089585;28;11743;-80
2024/03/04 04:53:38;;;;;;;;;43.00;41.00;;;;;;;;5089575;28;11540;-81
2024/03/04 04:56:07;;;;;;;;;47.33;41.33;;;;;;;;5090262;28;11670;-82
2024/03/04 04:58:36;;;;;;;;;52.00;44.00;;;;;;;;5089452;28;11486;-84
2024/03/04 05:01:03;;;;;;;;;50.00;43.33;;;;;;;;5089636;28;11601;-83
2024/03/04 05:03:31;;;;;;;;;55.00;46.00;;;;;;;;5088116;28;11667;-85
2024/03/04 05:06:00;;;;;;;;;56.67;48.00;;;;;;;;5095906;28;8923;-83
2024/03/04 05:08:27;;;;;;;;;59.67;48.33;;;;;;;;5089240;28;8831;-84
2024/03/04 05:10:54;;;;;;;;;55.67;45.33;;;;;;;;5089746;28;8838;-83
2024/03/04 05:13:21;;;;;;;;;63.00;49.67;;;;;;;;5090347;28;8827;-84
2024/03/04 05:15:52;;;;;;;;;49.00;43.33;;;;;;;;5090843;28;9652;-82
2024/03/04 05:18:19;;;;;;;;;67.67;56.33;;;;;;;;5067049;28;8864;-81
2024/03/04 05:20:46;;;;;;;;;58.67;49.67;;;;;;;;5082660;28;8876;-81
2024/03/04 05:23:14;;;;;;;;;63.33;51.00;;;;;;;;5088641;28;8834;-81
2024/03/04 05:25:41;;;;;;;;;59.00;48.67;;;;;;;;5088220;28;8853;-82
2024/03/04 05:28:08;;;;;;;;;59.00;49.00;;;;;;;;5088800;28;8838;-80
2024/03/04 05:30:36;;;;;;;;;61.67;48.67;;;;;;;;5088551;28;8787;-80
2024/03/04 05:33:05;;;;;;;;;64.67;54.00;;;;;;;;5089379;28;9799;-84
2024/03/04 05:35:33;;;;;;;;;61.33;47.00;;;;;;;;5089055;28;8934;-82
2024/03/04 05:38:00;;;;;;;;;57.33;48.67;;;;;;;;5088928;28;8858;-81
2024/03/04 05:40:26;;;;;;;;;56.00;45.00;;;;;;;;5069645;28;8877;-82
2024/03/04 05:42:54;;;;;;;;;48.00;43.33;;;;;;;;5089108;28;8854;-81
2024/03/04 05:45:21;;;;;;;;;46.67;40.67;;;;;;;;5088695;28;8838;-81
2024/03/04 05:47:50;;;;;;;;;43.67;41.00;;;;;;;;5088818;28;8852;-81
2024/03/04 05:50:22;;;;;;;;;44.67;41.33;;;;;;;;5088826;28;9000;-82
2024/03/04 05:52:49;;;;;;;;;47.67;42.33;;;;;;;;5088885;28;11562;-81
2024/03/04 05:55:17;;;;;;;;;38.00;35.00;;;;;;;;5087640;28;11527;-81
2024/03/04 05:57:45;;;;;;;;;37.67;37.67;;;;;;;;5088257;28;12313;-81
2024/03/04 06:00:14;;;;;;;;;36.00;33.67;;;;;;;;5085830;28;11548;-82
2024/03/04 06:02:42;;;;;;;;;43.50;38.50;;;;;;;;5088545;28;11537;-82
2024/03/04 06:05:11;;;;;;;;;45.50;38.50;;;;;;;;5098523;28;11532;-81
2024/03/04 06:07:40;;;;;;;;;44.00;39.00;;;;;;;;5087965;28;11563;-80
2024/03/04 06:10:08;;;;;;;;;42.67;39.67;;;;;;;;5088347;28;11542;-79
2024/03/04 06:12:35;;;;;;;;;33.67;30.33;;;;;;;;5091091;28;11547;-88
2024/03/04 06:15:03;;;;;;;;;44.00;38.33;;;;;;;;5097291;28;11592;-84
2024/03/04 06:17:30;;;;;;;;;37.25;35.00;;;;;;;;5096402;28;11536;-76
2024/03/04 06:20:00;;;;;;;;;28.50;25.75;;;;;;;;5094190;28;11545;-86
2024/03/04 06:22:29;;;;;;;;;34.25;27.00;;;;;;;;5095957;28;11563;-83
2024/03/04 06:25:00;;;;;;;;;33.33;32.00;;;;;;;;5098275;28;11503;-81
2024/03/04 06:27:27;;;;;;;;;29.67;29.67;;;;;;;;5101861;28;11481;-83
2024/03/04 06:29:55;;;;;;;;;29.00;29.00;;;;;;;;5103853;28;11564;-85
2024/03/04 06:32:25;;;;;;;;;29.33;26.67;;;;;;;;5101527;28;11579;-85
2024/03/04 06:34:52;;;;;;;;;23.67;23.67;;;;;;;;5094822;28;11565;-82
2024/03/04 06:37:19;;;;;;;;;23.00;19.25;;;;;;;;5089874;28;11537;-84
2024/03/04 06:39:47;;;;;;;;;23.00;21.00;;;;;;;;5090507;28;11550;-82
2024/03/04 06:42:15;;;;;;;;;30.33;27.67;;;;;;;;5091369;28;11550;-81
2024/03/04 06:44:42;;;;;;;;;31.67;30.00;;;;;;;;5092598;28;11626;-86
2024/03/04 06:47:10;;;;;;;;;27.33;26.00;;;;;;;;5088606;28;11551;-83
2024/03/04 06:49:38;;;;;;;;;37.00;31.00;;;;;;;;5088281;28;11520;-79
2024/03/04 06:52:05;;;;;;;;;26.00;25.33;;;;;;;;5089123;28;11592;-82
2024/03/04 06:54:33;;;;;;;;;28.33;28.33;;;;;;;;5092701;28;11536;-83
2024/03/04 06:57:00;;;;;;;;;38.00;35.67;;;;;;;;5091520;28;11771;-84
2024/03/04 06:59:31;;;;;;;;;29.00;29.00;;;;;;;;5092545;28;11620;-84
2024/03/04 07:01:59;;;;;;;;;40.67;37.33;;;;;;;;5093440;28;11496;-81
2024/03/04 07:04:29;;;;;;;;;41.33;37.33;;;;;;;;5094711;28;8865;-79
2024/03/04 07:06:59;;;;;;;;;52.67;42.33;;;;;;;;5093893;28;9275;-83
2024/03/04 07:09:29;;;;;;;;;65.00;49.67;;;;;;;;5093411;28;8866;-80
2024/03/04 07:11:57;;;;;;;;;67.67;54.00;;;;;;;;5093107;28;8862;-86
2024/03/04 07:14:24;;;;;;;;;54.00;45.33;;;;;;;;5091911;28;8850;-82
2024/03/04 07:16:52;;;;;;;;;61.33;48.33;;;;;;;;5092280;28;8856;-78
2024/03/04 07:19:20;;;;;;;;;60.33;49.00;;;;;;;;5091571;28;8858;-85
2024/03/04 07:21:47;;;;;;;;;71.67;57.33;;;;;;;;5092379;28;8834;-82
2024/03/04 07:24:14;;;;;;;;;84.00;67.00;;;;;;;;5091502;28;8876;-81
2024/03/04 07:26:43;;;;;;;;;80.00;63.00;;;;;;;;5103095;28;8860;-79
2024/03/04 07:29:10;;;;;;;;;82.00;63.33;;;;;;;;5092258;28;8942;-83
2024/03/04 07:31:39;;;;;;;;;63.67;51.00;;;;;;;;5093541;28;8937;-85
2024/03/04 07:34:15;;;;;;;;;63.00;51.00;;;;;;;;5092106;28;8933;-77
2024/03/04 07:36:45;;;;;;;;;84.00;64.33;;;;;;;;5091852;28;8854;-84
2024/03/04 07:39:12;;;;;;;;;77.67;59.67;;;;;;;;5092467;28;8919;-87
2024/03/04 07:41:39;;;;;;;;;76.00;56.67;;;;;;;;5092058;28;8901;-82
2024/03/04 07:44:06;;;;;;;;;71.67;56.67;;;;;;;;5091660;28;8838;-79
2024/03/04 07:46:34;;;;;;;;;70.00;56.33;;;;;;;;5092299;28;8966;-84
2024/03/04 07:49:00;;;;;;;;;73.33;58.33;;;;;;;;5089726;28;8844;-80
2024/03/04 07:51:31;;;;;;;;;69.33;57.67;;;;;;;;5091803;28;8826;-77
2024/03/04 07:54:01;;;;;;;;;64.67;52.33;;;;;;;;5090897;28;8862;-83
2024/03/04 07:56:33;;;;;;;;;50.33;44.67;;;;;;;;5092398;28;8850;-75
2024/03/04 07:59:00;;;;;;;;;31.75;31.75;;;;;;;;5093147;28;11590;-86
2024/03/04 08:01:27;;;;;;;;;40.25;37.00;;;;;;;;5092608;28;11475;-83
2024/03/04 08:03:55;;;;;;;;;39.25;31.75;;;;;;;;5079886;28;11562;-85
2024/03/04 08:06:22;;;;;;;;;39.75;33.00;;;;;;;;5093242;28;11554;-87
2024/03/04 08:08:53;;;;;;;;;33.50;27.25;;;;;;;;5095056;28;11660;-82
2024/03/04 08:11:23;;;;;;;;;33.00;29.25;;;;;;;;5097041;28;11642;-84
2024/03/04 08:13:51;;;;;;;;;36.00;31.50;;;;;;;;5097711;28;11496;-86
2024/03/04 08:16:18;;;;;;;;;33.75;32.50;;;;;;;;5100045;28;11509;-78
2024/03/04 08:18:45;;;;;;;;;33.50;31.00;;;;;;;;5106540;28;11673;-81
2024/03/04 08:21:15;;;;;;;;;29.75;28.00;;;;;;;;5096439;28;11534;-83
2024/03/04 08:23:42;;;;;;;;;33.75;32.75;;;;;;;;5094852;28;11539;-78
2024/03/04 08:26:11;;;;;;;;;32.00;29.75;;;;;;;;5094087;28;11518;-79
2024/03/04 08:28:38;;;;;;;;;35.50;34.25;;;;;;;;5099263;28;11643;-77
2024/03/04 08:31:06;;;;;;;;;29.75;28.25;;;;;;;;5091736;28;11898;-75
2024/03/04 08:33:42;;;;;;;;;30.75;30.75;;;;;;;;5093558;28;11666;-88
2024/03/04 08:36:12;;;;;;;;;35.75;30.00;;;;;;;;5092357;28;11528;-79
2024/03/04 08:38:39;;;;;;;;;25.75;25.75;;;;;;;;5089449;28;11624;-80
2024/03/04 08:41:06;;;;;;;;;28.75;26.25;;;;;;;;5090361;28;11541;-77
2024/03/04 08:43:35;;;;;;;;;31.25;28.25;;;;;;;;5089973;28;11553;-79
2024/03/04 08:46:02;;;;;;;;;30.25;29.25;;;;;;;;5090363;28;11585;-77
2024/03/04 08:48:32;;;;;;;;;30.50;27.25;;;;;;;;5089259;28;11539;-76
2024/03/04 08:50:59;;;;;;;;;29.50;29.50;;;;;;;;5089677;28;11549;-77
2024/03/04 08:53:29;;;;;;;;;29.75;27.00;;;;;;;;5088841;28;11517;-78
2024/03/04 08:55:56;;;;;;;;;26.00;22.75;;;;;;;;5089645;28;11470;-81
2024/03/04 08:58:23;;;;;;;;;26.75;25.25;;;;;;;;5076797;28;12178;-78
2024/03/04 09:00:52;;;;;;;;;20.75;20.75;;;;;;;;5089322;28;11400;-79
2024/03/04 09:03:21;;;;;;;;;22.00;22.00;;;;;;;;5089717;28;11476;-78
2024/03/04 09:05:48;;;;;;;;;23.00;23.00;;;;;;;;5089645;28;12123;-77
2024/03/04 09:08:15;;;;;;;;;27.75;22.25;;;;;;;;5088796;28;11429;-80
2024/03/04 09:10:43;;;;;;;;;28.25;27.00;;;;;;;;5089363;28;12338;-78
2024/03/04 09:13:10;;;;;;;;;24.75;24.75;;;;;;;;5089247;28;11628;-79
2024/03/04 09:15:37;;;;;;;;;22.25;20.25;;;;;;;;5089138;28;11243;-81
2024/03/04 09:18:12;;;;;;;;;18.75;18.50;;;;;;;;5089182;28;10949;-81
2024/03/04 09:20:40;;;;;;;;;17.00;17.00;;;;;;;;5089627;28;10972;-83
2024/03/04 09:23:12;;;;;;;;;25.50;24.25;;;;;;;;5089148;28;11545;-81
2024/03/04 09:25:41;;;;;;;;;19.25;19.25;;;;;;;;5101944;28;10894;-80
2024/03/04 09:28:08;;;;;;;;;20.50;17.00;;;;;;;;5089048;28;10720;-81
2024/03/04 09:30:38;;;;;;;;;20.50;18.50;;;;;;;;5087369;28;11376;-83
2024/03/04 09:33:07;;;;;;;;;16.50;14.50;;;;;;;;5089748;28;10683;-79
2024/03/04 09:35:40;;;;;;;;;16.75;15.50;;;;;;;;5088734;28;10637;-79
2024/03/04 09:38:07;;;;;;;;;19.25;19.25;;;;;;;;5088815;28;10528;-81
2024/03/04 09:40:39;;;;;;;;;15.00;12.75;;;;;;;;5089470;28;10377;-82
2024/03/04 09:43:08;;;;;;;;;13.75;11.75;;;;;;;;5089948;28;10200;-83
2024/03/04 09:45:38;;;;;;;;;13.50;12.00;;;;;;;;5089420;28;9984;-80
2024/03/04 09:48:10;;;;;;;;;10.50;9.50;;;;;;;;5089423;28;9982;-81
2024/03/04 09:50:37;;;;;;;;;14.75;13.25;;;;;;;;5088153;28;10044;-80
2024/03/04 09:53:06;;;;;;;;;11.00;9.25;;;;;;;;5089938;28;9946;-79
2024/03/04 09:55:33;;;;;;;;;10.25;9.75;;;;;;;;5090167;28;10076;-78
2024/03/04 09:58:00;;;;;;;;;7.25;7.25;;;;;;;;5091247;28;9863;-83
2024/03/04 10:00:30;;;;;;;;;10.25;10.25;;;;;;;;5091240;28;9625;-79
2024/03/04 10:03:00;;;;;;;;;9.50;9.50;;;;;;;;5082463;28;9694;-82
2024/03/04 10:05:29;;;;;;;;;10.75;9.00;;;;;;;;5092012;28;9609;-82
2024/03/04 10:07:56;;;;;;;;;10.00;10.00;;;;;;;;5092653;28;9615;-81
2024/03/04 10:10:23;;;;;;;;;12.00;10.75;;;;;;;;5092784;28;9462;-80
2024/03/04 10:12:51;;;;;;;;;12.25;9.00;;;;;;;;5083818;28;9537;-78
2024/03/04 10:15:22;;;;;;;;;8.00;8.00;;;;;;;;5085785;28;9525;-83
2024/03/04 10:17:50;;;;;;;;;7.25;7.25;;;;;;;;5089962;28;9606;-81
2024/03/04 10:20:18;;;;;;;;;8.00;6.25;;;;;;;;5089559;28;9590;-82
2024/03/04 10:22:47;;;;;;;;;4.67;4.67;;;;;;;;5090768;28;9482;-82
2024/03/04 10:25:15;;;;;;;;;5.67;5.67;;;;;;;;5098908;28;9332;-81
2024/03/04 10:27:44;;;;;;;;;6.00;6.00;;;;;;;;5101755;28;9573;-82
2024/03/04 10:30:13;;;;;;;;;6.00;4.67;;;;;;;;5096642;28;9199;-83
2024/03/04 10:32:45;;;;;;;;;4.00;4.00;;;;;;;;5094019;28;9238;-83
2024/03/04 10:35:13;;;;;;;;;7.00;3.33;;;;;;;;5095028;28;9158;-78
2024/03/04 10:37:40;;;;;;;;;3.25;3.00;;;;;;;;5094849;28;9319;-82
2024/03/04 10:40:12;;;;;;;;;4.00;4.00;;;;;;;;5094813;28;8842;-80
2024/03/04 10:42:40;;;;;;;;;4.00;4.00;;;;;;;;5095769;28;8845;-82
2024/03/04 10:45:08;;;;;;;;;3.50;3.00;;;;;;;;5097552;28;8846;-84
2024/03/04 10:47:36;;;;;;;;;2.00;2.00;;;;;;;;5097109;28;8863;-80
2024/03/04 10:50:05;;;;;;;;;3.00;3.00;;;;;;;;5095190;28;8846;-81
2024/03/04 10:52:33;;;;;;;;;2.50;2.00;;;;;;;;5095447;28;8872;-82
2024/03/04 10:55:00;;;;;;;;;1.75;1.75;;;;;;;;5094232;28;9633;-82
2024/03/04 10:57:29;;;;;;;;;1.50;1.50;;;;;;;;5095079;28;8832;-84
2024/03/04 10:59:58;;;;;;;;;1.25;1.25;;;;;;;;5094587;28;8846;-77
2024/03/04 11:02:42;;;;;;;;;1.75;1.00;;;;;;;;5095890;28;8802;-83
2024/03/04 11:05:11;;;;;;;;;0.50;0.50;;;;;;;;5095203;28;8851;-84
2024/03/04 11:07:42;;;;;;;;;1.25;1.25;;;;;;;;5095432;28;8895;-82
2024/03/04 11:10:21;;;;;;;;;1.25;1.00;;;;;;;;5093763;28;8835;-81
2024/03/04 11:13:02;;;;;;;;;1.50;1.50;;;;;;;;5094833;28;8869;-81
2024/03/04 11:15:35;;;;;;;;;4.00;0.75;;;;;;;;5086455;28;8884;-83
2024/03/04 11:18:08;;;;;;;;;0.75;0.75;;;;;;;;5095297;28;8862;-88
2024/03/04 11:20:42;;;;;;;;;1.50;0.00;;;;;;;;5094503;28;8850;-82
2024/03/04 11:23:10;;;;;;;;;0.50;0.00;;;;;;;;5093823;28;8916;-80
2024/03/04 11:25:38;;;;;;;;;1.00;1.00;;;;;;;;5094202;28;8893;-83
2024/03/04 11:28:08;;;;;;;;;1.00;1.00;;;;;;;;5095160;28;9616;-80
2024/03/04 11:30:37;;;;;;;;;1.00;1.00;;;;;;;;5096621;28;8786;-79
2024/03/04 11:33:41;;;;;;;;;1.00;1.00;;;;;;;;5089572;28;8869;-87
2024/03/04 11:36:09;;;;;;;;;3.00;0.00;;;;;;;;5095079;28;8854;-84
2024/03/04 11:38:46;;;;;;;;;0.75;0.75;;;;;;;;5092888;28;8857;-79
2024/03/04 11:41:36;;;;;;;;;1.50;1.00;;;;;;;;5080334;28;9726;-83
2024/03/04 11:44:05;;;;;;;;;3.00;1.00;;;;;;;;5092643;28;8858;-83
2024/03/04 11:46:35;;;;;;;;;0.75;0.75;;;;;;;;5093463;28;9639;-82
2024/03/04 11:49:24;;;;;;;;;2.00;2.00;;;;;;;;5107516;28;8952;-87
2024/03/04 11:51:59;;;;;;;;;2.00;2.00;;;;;;;;5093938;28;8858;-83
2024/03/04 11:54:46;;;;;;;;;4.25;4.25;;;;;;;;5094425;28;8864;-83
2024/03/04 11:57:14;;;;;;;;;5.25;4.25;;;;;;;;5087982;28;8854;-85
2024/03/04 12:00:00;;;;;;;;;2.25;2.25;;;;;;;;5091176;28;8846;-79
2024/03/04 12:02:27;;;;;;;;;2.00;2.00;;;;;;;;5091605;28;8805;-78
2024/03/04 12:04:58;;;;;;;;;1.25;1.25;;;;;;;;5092599;28;8878;-80
2024/03/04 12:07:29;;;;;;;;;2.50;2.50;;;;;;;;5091889;28;8963;-84
2024/03/04 12:10:05;;;;;;;;;2.25;2.00;;;;;;;;5093039;28;8978;-82
2024/03/04 12:12:32;;;;;;;;;4.00;3.00;;;;;;;;5093999;28;8864;-81
2024/03/04 12:15:06;;;;;;;;;2.50;2.50;;;;;;;;5092069;28;9624;-83
2024/03/04 13:47:20;;;;;;;;;1.25;1.25;;;;;;;;5125590;27;13508;-81
2024/03/04 13:49:48;;;;;;;;;0.00;0.00;;;;;;;;5128679;27;8854;-80
2024/03/04 13:52:15;;;;;;;;;1.50;1.50;;;;;;;;5127802;27;8975;-80
2024/03/04 13:54:42;;;;;;;;;1.00;1.00;;;;;;;;5126177;27;8984;-81
2024/03/04 13:57:11;;;;;;;;;1.00;1.00;;;;;;;;5125698;28;8861;-80
2024/03/04 13:59:38;;;;;;;;;1.00;1.00;;;;;;;;5125510;27;8984;-80
2024/03/04 14:02:10;;;;;;;;;0.75;0.75;;;;;;;;5091693;27;8951;-79
2024/03/04 14:04:39;;;;;;;;;1.00;1.00;;;;;;;;5084520;28;8962;-82
2024/03/04 14:07:06;;;;;;;;;3.00;3.00;;;;;;;;5085684;28;9602;-80
2024/03/04 14:09:42;;;;;;;;;0.25;0.25;;;;;;;;5085323;28;8862;-82
2024/03/04 14:12:09;;;;;;;;;1.25;1.25;;;;;;;;5084897;28;8839;-81
2024/03/04 14:14:37;;;;;;;;;3.00;3.00;;;;;;;;5084795;28;8855;-80
2024/03/04 14:17:07;;;;;;;;;7.75;5.00;;;;;;;;5084720;28;8862;-80
2024/03/04 14:19:43;;;;;;;;;39.00;32.00;;;;;;;;5084754;28;8871;-79
2024/03/04 14:22:10;;;;;;;;;2.00;2.00;;;;;;;;5076001;28;9346;-79
2024/03/04 14:24:40;;;;;;;;;3.50;3.50;;;;;;;;5083789;28;8962;-79
2024/03/04 14:27:07;;;;;;;;;3.25;3.25;;;;;;;;5087129;28;8973;-79
2024/03/04 14:29:42;;;;;;;;;1.75;1.75;;;;;;;;5072338;28;8860;-79
2024/03/04 14:32:09;;;;;;;;;3.75;2.50;;;;;;;;5083227;28;8803;-79
2024/03/04 14:34:38;;;;;;;;;3.75;3.50;;;;;;;;5083570;28;8885;-82
2024/03/04 14:37:07;;;;;;;;;3.50;3.50;;;;;;;;5084045;28;8877;-79
2024/03/04 14:39:36;;;;;;;;;2.25;2.25;;;;;;;;5085054;28;8846;-80
2024/03/04 14:42:03;;;;;;;;;2.75;2.75;;;;;;;;5083407;28;8885;-80
2024/03/04 14:44:30;;;;;;;;;3.00;3.00;;;;;;;;5084317;28;8862;-81
2024/03/04 14:47:07;;;;;;;;;3.00;3.00;;;;;;;;5084344;28;8874;-79
2024/03/04 14:49:41;;;;;;;;;3.50;3.50;;;;;;;;5085745;28;8868;-81
2024/03/04 14:52:14;;;;;;;;;4.75;4.00;;;;;;;;5082819;28;8864;-79
2024/03/04 14:54:44;;;;;;;;;2.50;2.50;;;;;;;;5083609;28;8860;-78
2024/03/04 14:57:12;;;;;;;;;2.50;1.75;;;;;;;;5077805;28;8937;-79
2024/03/04 14:59:39;;;;;;;;;2.50;2.50;;;;;;;;5069600;28;8878;-78
2024/03/04 15:02:07;;;;;;;;;2.00;2.00;;;;;;;;5069089;28;9695;-78
2024/03/04 15:04:36;;;;;;;;;1.00;1.00;;;;;;;;5056905;28;8835;-76
2024/03/04 15:07:08;;;;;;;;;1.75;1.75;;;;;;;;5070026;28;8860;-80
2024/03/04 15:09:39;;;;;;;;;2.50;2.50;;;;;;;;5070611;28;8844;-77
2024/03/04 15:12:07;;;;;;;;;1.00;1.00;;;;;;;;5070452;28;8871;-78
2024/03/04 15:14:37;;;;;;;;;2.00;2.00;;;;;;;;5070140;28;8828;-78
2024/03/04 15:17:05;;;;;;;;;3.50;2.00;;;;;;;;5070624;28;8857;-79
2024/03/04 15:19:35;;;;;;;;;1.25;1.25;;;;;;;;5070501;28;8985;-80
2024/03/04 15:22:03;;;;;;;;;1.50;1.50;;;;;;;;5070878;28;8863;-80
2024/03/04 15:24:31;;;;;;;;;3.00;3.00;;;;;;;;5071589;28;8875;-79
2024/03/04 15:27:04;;;;;;;;;3.00;3.00;;;;;;;;5071911;28;8848;-78
2024/03/04 15:29:31;;;;;;;;;2.00;2.00;;;;;;;;5059097;28;8841;-79
2024/03/04 15:32:02;;;;;;;;;1.00;1.00;;;;;;;;5072480;28;8792;-79
2024/03/04 15:34:32;;;;;;;;;1.00;1.00;;;;;;;;5071806;28;8884;-79
2024/03/04 15:37:00;;;;;;;;;0.50;0.50;;;;;;;;5072101;28;8856;-78
2024/03/04 15:39:28;;;;;;;;;1.25;1.00;;;;;;;;5072206;28;8853;-79
2024/03/04 15:41:55;;;;;;;;;1.75;1.75;;;;;;;;5071244;28;8852;-77
2024/03/04 15:44:24;;;;;;;;;2.00;1.25;;;;;;;;5070111;28;8866;-78
2024/03/04 15:46:51;;;;;;;;;2.50;2.50;;;;;;;;5068877;28;8860;-76
2024/03/04 15:49:18;;;;;;;;;2.00;2.00;;;;;;;;5069574;28;8898;-79
2024/03/04 15:51:46;;;;;;;;;1.00;1.00;;;;;;;;5068237;28;8913;-76
2024/03/04 15:54:13;;;;;;;;;1.25;1.25;;;;;;;;5068813;28;8864;-80
2024/03/04 15:56:42;;;;;;;;;6.00;6.00;;;;;;;;5068588;28;8868;-79
2024/03/04 15:59:10;;;;;;;;;3.00;3.00;;;;;;;;5069599;28;8856;-78
2024/03/04 16:01:38;;;;;;;;;4.75;4.50;;;;;;;;5068030;28;8781;-78
2024/03/04 16:04:06;;;;;;;;;3.00;3.00;;;;;;;;5069348;28;8926;-79
2024/03/04 16:06:38;;;;;;;;;1.25;1.25;;;;;;;;5068981;28;9587;-78
2024/03/04 16:09:08;;;;;;;;;4.00;3.00;;;;;;;;5068488;28;8868;-79
2024/03/04 16:11:39;;;;;;;;;3.50;3.50;;;;;;;;5069058;28;8845;-79
2024/03/04 16:14:06;;;;;;;;;3.75;3.75;;;;;;;;5069852;28;8864;-78